Airfield :
LOGIN :

Register | Disclaimer

   EN    FR    IT 

 










Legend :    VFR   Marginal VFR   IFR   Intensive IFR   Very Intensive IFR
Visi :
Ceiling :
>= 8 km
>= 3000ft
5 to 8 km
1000 to 3000 ft
1500m to 5 km
500 to 1000 ft
800 to 1500m
200 to 500 ft
< 800m
< 200 ft
Symbols :   Thunderstorms  Fog  Heavy snow  Heavy precipitations  Wind > 20 kt
SIGMETs :     Misc.  Thunderstorms  Icing  Turbulence  Mountain Waves  Volcanic Ashes







- Airport Elevation : 465 ft
- IATA code : LEJ


EDDP - Leipzig Halle

CURRENT METAR :
  • 132320Z 07008KT 8000 BKN006 01/M00 Q1022 NOSIG

EXPIRED METARs :
  • 132250Z 07007KT 8000 BKN006 01/M00 Q1022 NOSIG
  • 132220Z 06007KT 8000 BKN006 OVC045 01/00 Q1022 NOSIG
  • 132150Z 07009KT 8000 FEW007 BKN022 01/00 Q1022 NOSIG
  • 132120Z 07009KT 8000 BKN007 BKN022 01/00 Q1022 NOSIG
  • 132050Z 07008KT 8000 BKN007 01/00 Q1022 NOSIG

TAF TAF EDDP
Valid from the 14 at 00:00 until the 15 at 00:00 UTC


132300Z 1400/1424 07008KT 9000 SCT007 BKN020
TEMPO 1400/1408 BKN007
PROB40
TEMPO 1408/1418 BKN012
No reported NOTAMs for that airfield.



MET'MAP, your aeronautical weather chart ! - Copyright ORBIFLY December 2007 - Disclaimer

ORBIFLY MET'MAP TEAM :

Programming & Development : Alexandra Zaïnal
Concept & Development : Baudouin d'Aumeries
Co-Development & Prog : Marc-Olivier Méhu
Technical & hardware support : Manuel Goepfert

Contact : metmap@orbifly.com




SOURCES & CREDITS :

   NOAA